Time;durP1;ratioP1;P1;durP2;ratioP2;P2;SDS_P1;SDS_P2;PMS_P1;PMS_P2;Temp;Humidity;BMP_temperature;BMP_pressure;BME280_temperature;BME280_humidity;BME280_pressure;Samples;Min_cycle;Max_cycle;Signal;HPM_P1;HPM_P2
2024/02/29 00:01:57;;;;;;;1999.90;999.90;;;;;;;;;;6124313;23;20496;-81
2024/02/29 00:04:24;;;;;;;1999.90;999.90;;;;;;;;;;6125071;23;20033;-81
2024/02/29 00:06:51;;;;;;;1999.90;999.90;;;;;;;;;;6124276;23;20089;-81
2024/02/29 00:09:17;;;;;;;1999.90;999.90;;;;;;;;;;6124440;23;20073;-80
2024/02/29 00:11:44;;;;;;;1999.90;999.90;;;;;;;;;;6124358;23;20106;-82
2024/02/29 00:14:11;;;;;;;1999.90;999.90;;;;;;;;;;6124074;23;20022;-81
2024/02/29 00:16:39;;;;;;;1999.90;999.90;;;;;;;;;;6124375;23;20438;-81
2024/02/29 00:19:07;;;;;;;1999.90;999.90;;;;;;;;;;6124210;23;20323;-82
2024/02/29 00:21:34;;;;;;;1999.90;999.90;;;;;;;;;;6124509;23;20026;-83
2024/02/29 00:24:00;;;;;;;1999.90;999.90;;;;;;;;;;6124475;23;20349;-80
2024/02/29 00:26:27;;;;;;;1999.90;999.90;;;;;;;;;;6124134;23;20022;-80
2024/02/29 00:28:54;;;;;;;1999.90;999.90;;;;;;;;;;6124543;23;20034;-81
2024/02/29 00:31:21;;;;;;;1999.90;999.90;;;;;;;;;;6124245;23;20048;-81
2024/02/29 00:33:48;;;;;;;1999.90;999.90;;;;;;;;;;6124130;23;20060;-81
2024/02/29 00:36:17;;;;;;;1999.90;999.90;;;;;;;;;;6124183;23;20092;-80
2024/02/29 00:38:44;;;;;;;1999.90;999.90;;;;;;;;;;6124455;23;20049;-80
2024/02/29 00:41:10;;;;;;;1999.90;999.90;;;;;;;;;;6123951;23;20397;-80
2024/02/29 00:43:38;;;;;;;1999.90;999.90;;;;;;;;;;6124390;23;20100;-80
2024/02/29 00:46:05;;;;;;;1999.90;999.90;;;;;;;;;;6124042;23;20049;-81
2024/02/29 00:48:31;;;;;;;1999.90;999.90;;;;;;;;;;6124435;23;20021;-81
2024/02/29 00:50:58;;;;;;;1999.90;999.90;;;;;;;;;;6123341;23;20097;-81
2024/02/29 00:53:26;;;;;;;1999.90;999.90;;;;;;;;;;6124006;23;20053;-81
2024/02/29 00:55:52;;;;;;;1999.90;999.90;;;;;;;;;;6124104;23;20097;-83
2024/02/29 00:58:19;;;;;;;1999.90;999.90;;;;;;;;;;6124129;23;20060;-82
2024/02/29 01:00:46;;;;;;;1999.90;999.90;;;;;;;;;;6123892;23;20487;-81
2024/02/29 01:03:12;;;;;;;1999.90;999.90;;;;;;;;;;6124109;23;20036;-83
2024/02/29 01:05:39;;;;;;;1999.90;999.90;;;;;;;;;;6123956;23;20050;-83
2024/02/29 01:08:06;;;;;;;1999.90;999.90;;;;;;;;;;6123919;23;20021;-83
2024/02/29 01:10:34;;;;;;;1999.90;999.90;;;;;;;;;;6123883;23;20021;-81
2024/02/29 01:13:01;;;;;;;1999.90;999.90;;;;;;;;;;6123614;23;20022;-82
2024/02/29 01:15:27;;;;;;;1999.90;999.90;;;;;;;;;;6123917;23;20018;-81
2024/02/29 01:17:54;;;;;;;1999.90;999.90;;;;;;;;;;6125670;23;20104;-82
2024/02/29 01:20:20;;;;;;;1999.90;999.90;;;;;;;;;;6125918;23;20054;-81
2024/02/29 01:22:47;;;;;;;1999.90;999.90;;;;;;;;;;6125524;23;20505;-82
2024/02/29 01:25:14;;;;;;;1999.90;999.90;;;;;;;;;;6125792;23;20117;-82
2024/02/29 01:27:42;;;;;;;1999.90;999.90;;;;;;;;;;6125984;23;20053;-81
2024/02/29 01:30:09;;;;;;;1999.90;999.90;;;;;;;;;;6125170;23;20093;-81
2024/02/29 01:32:36;;;;;;;1999.90;999.90;;;;;;;;;;6125729;23;20040;-80
2024/02/29 01:35:02;;;;;;;1999.90;999.90;;;;;;;;;;6125736;23;20101;-82
2024/02/29 01:37:29;;;;;;;1999.90;999.90;;;;;;;;;;6125420;23;20029;-81
2024/02/29 01:39:55;;;;;;;1999.90;999.90;;;;;;;;;;6125484;23;20053;-81
2024/02/29 01:42:22;;;;;;;1999.90;999.90;;;;;;;;;;6125445;23;20093;-80
2024/02/29 01:44:54;;;;;;;1999.90;999.90;;;;;;;;;;6125753;23;20105;-83
2024/02/29 01:47:20;;;;;;;1999.90;999.90;;;;;;;;;;6125684;23;20022;-81
2024/02/29 01:49:47;;;;;;;1999.90;999.90;;;;;;;;;;6125492;23;20018;-81
2024/02/29 01:52:15;;;;;;;1999.90;999.90;;;;;;;;;;6125081;23;20432;-82
2024/02/29 01:54:42;;;;;;;1999.90;999.90;;;;;;;;;;6125573;23;20431;-82
2024/02/29 01:57:09;;;;;;;1999.90;999.90;;;;;;;;;;6125439;23;20104;-81
2024/02/29 01:59:37;;;;;;;1999.90;999.90;;;;;;;;;;6125373;23;20022;-81
2024/02/29 02:02:05;;;;;;;1999.90;999.90;;;;;;;;;;6125162;23;20441;-80
2024/02/29 02:04:32;;;;;;;1999.90;999.90;;;;;;;;;;6125158;23;20093;-80
2024/02/29 02:07:01;;;;;;;1999.90;999.90;;;;;;;;;;6125301;23;20056;-81
2024/02/29 02:09:28;;;;;;;1999.90;999.90;;;;;;;;;;6125186;23;20030;-81
2024/02/29 02:11:55;;;;;;;1999.90;999.90;;;;;;;;;;6125369;23;20085;-81
2024/02/29 02:14:22;;;;;;;1999.90;999.90;;;;;;;;;;6125887;23;20026;-81
2024/02/29 02:16:48;;;;;;;1999.90;999.90;;;;;;;;;;6125613;23;20483;-80
2024/02/29 02:19:17;;;;;;;1999.90;999.90;;;;;;;;;;6124965;23;20022;-80
2024/02/29 02:21:45;;;;;;;1999.90;999.90;;;;;;;;;;6125346;23;20018;-80
2024/02/29 02:24:11;;;;;;;1999.90;999.90;;;;;;;;;;6125573;23;20101;-81
2024/02/29 02:26:38;;;;;;;1999.90;999.90;;;;;;;;;;6125672;23;20101;-81
2024/02/29 02:29:05;;;;;;;1999.90;999.90;;;;;;;;;;6124989;23;20477;-83
2024/02/29 02:31:32;;;;;;;1999.90;999.90;;;;;;;;;;6125201;23;20018;-81
2024/02/29 02:33:59;;;;;;;1999.90;999.90;;;;;;;;;;6125698;23;20105;-82
2024/02/29 02:36:25;;;;;;;1999.90;999.90;;;;;;;;;;6125049;23;20065;-81
2024/02/29 02:38:54;;;;;;;1999.90;999.90;;;;;;;;;;6125160;23;20036;-81
2024/02/29 02:41:21;;;;;;;1999.90;999.90;;;;;;;;;;6125223;23;20073;-80
2024/02/29 02:43:49;;;;;;;1999.90;999.90;;;;;;;;;;6125355;23;20021;-81
2024/02/29 02:46:16;;;;;;;1999.90;999.90;;;;;;;;;;6125236;23;20021;-81
2024/02/29 02:48:44;;;;;;;1999.90;999.90;;;;;;;;;;6125130;23;20022;-81
2024/02/29 02:51:10;;;;;;;1999.90;999.90;;;;;;;;;;6124801;23;20480;-80
2024/02/29 02:53:37;;;;;;;1999.90;999.90;;;;;;;;;;6124824;23;20077;-82
2024/02/29 02:56:05;;;;;;;1999.90;999.90;;;;;;;;;;6125633;23;20420;-80
2024/02/29 02:58:32;;;;;;;1999.90;999.90;;;;;;;;;;6125318;23;20024;-81
2024/02/29 03:00:58;;;;;;;1999.90;999.90;;;;;;;;;;6124850;23;20018;-82
2024/02/29 03:03:26;;;;;;;1999.90;999.90;;;;;;;;;;6125122;23;20101;-80
2024/02/29 03:05:53;;;;;;;1999.90;999.90;;;;;;;;;;6125220;23;20025;-83
2024/02/29 03:08:20;;;;;;;1999.90;999.90;;;;;;;;;;6124726;23;20102;-81
2024/02/29 03:10:47;;;;;;;1999.90;999.90;;;;;;;;;;6124806;23;20460;-81
2024/02/29 03:13:15;;;;;;;1999.90;999.90;;;;;;;;;;6125064;23;20022;-82
2024/02/29 03:15:42;;;;;;;1999.90;999.90;;;;;;;;;;6124701;23;20072;-81
2024/02/29 03:18:08;;;;;;;1999.90;999.90;;;;;;;;;;6124749;23;20097;-80
2024/02/29 03:20:35;;;;;;;1999.90;999.90;;;;;;;;;;6124260;23;20036;-81
2024/02/29 03:23:03;;;;;;;1999.90;999.90;;;;;;;;;;6124965;23;20096;-80
2024/02/29 03:25:29;;;;;;;1999.90;999.90;;;;;;;;;;6124837;23;20033;-81
2024/02/29 03:27:56;;;;;;;1999.90;999.90;;;;;;;;;;6124412;23;20120;-82
2024/02/29 03:30:24;;;;;;;1999.90;999.90;;;;;;;;;;6124747;23;20101;-80
2024/02/29 03:32:50;;;;;;;1999.90;999.90;;;;;;;;;;6124622;23;20117;-82
2024/02/29 03:35:17;;;;;;;1999.90;999.90;;;;;;;;;;6124333;23;20033;-80
2024/02/29 03:37:43;;;;;;;1999.90;999.90;;;;;;;;;;6124148;23;20054;-82
2024/02/29 03:40:11;;;;;;;1999.90;999.90;;;;;;;;;;6124485;23;20056;-83
2024/02/29 03:42:39;;;;;;;1999.90;999.90;;;;;;;;;;6124505;23;20021;-80
2024/02/29 03:45:07;;;;;;;1999.90;999.90;;;;;;;;;;6124576;23;20352;-81
2024/02/29 03:47:36;;;;;;;1999.90;999.90;;;;;;;;;;6124280;23;20028;-82
2024/02/29 03:50:03;;;;;;;1999.90;999.90;;;;;;;;;;6124014;23;20117;-82
2024/02/29 03:52:29;;;;;;;1999.90;999.90;;;;;;;;;;6123902;23;20112;-82
2024/02/29 03:54:55;;;;;;;1999.90;999.90;;;;;;;;;;6124419;23;20030;-81
2024/02/29 03:57:22;;;;;;;1999.90;999.90;;;;;;;;;;6123768;23;20550;-81
2024/02/29 03:59:49;;;;;;;1999.90;999.90;;;;;;;;;;6123672;23;20491;-80
2024/02/29 04:02:15;;;;;;;1999.90;999.90;;;;;;;;;;6123896;23;20021;-80
2024/02/29 04:04:43;;;;;;;1999.90;999.90;;;;;;;;;;6124191;23;20025;-81
2024/02/29 04:07:09;;;;;;;1999.90;999.90;;;;;;;;;;6123849;23;20048;-81
2024/02/29 04:09:36;;;;;;;1999.90;999.90;;;;;;;;;;6124388;23;20028;-81
2024/02/29 04:12:03;;;;;;;1999.90;999.90;;;;;;;;;;6124112;23;20017;-81
2024/02/29 04:14:29;;;;;;;1999.90;999.90;;;;;;;;;;6123303;23;20526;-81
2024/02/29 04:16:56;;;;;;;1999.90;999.90;;;;;;;;;;6124177;23;20028;-81
2024/02/29 04:19:22;;;;;;;1999.90;999.90;;;;;;;;;;6123950;23;20022;-83
2024/02/29 04:21:50;;;;;;;1999.90;999.90;;;;;;;;;;6124041;23;20022;-84
2024/02/29 04:24:17;;;;;;;1999.90;999.90;;;;;;;;;;6124013;23;20022;-82
2024/02/29 04:26:43;;;;;;;1999.90;999.90;;;;;;;;;;6123575;23;20029;-81
2024/02/29 04:29:10;;;;;;;1999.90;999.90;;;;;;;;;;6124249;23;20022;-81
2024/02/29 04:31:36;;;;;;;1999.90;999.90;;;;;;;;;;6123843;23;20018;-81
2024/02/29 04:34:03;;;;;;;1999.90;999.90;;;;;;;;;;6123765;23;20025;-81
2024/02/29 04:36:30;;;;;;;1999.90;999.90;;;;;;;;;;6123472;23;20022;-81
2024/02/29 04:38:58;;;;;;;1999.90;999.90;;;;;;;;;;6123699;23;20449;-81
2024/02/29 04:41:25;;;;;;;1999.90;999.90;;;;;;;;;;6123589;23;20022;-82
2024/02/29 04:43:51;;;;;;;1999.90;999.90;;;;;;;;;;6123439;23;20026;-81
2024/02/29 04:46:18;;;;;;;1999.90;999.90;;;;;;;;;;6123795;23;20018;-82
2024/02/29 04:48:44;;;;;;;1999.90;999.90;;;;;;;;;;6123896;23;20028;-83
2024/02/29 04:51:11;;;;;;;1999.90;999.90;;;;;;;;;;6123474;23;20026;-82
2024/02/29 04:53:37;;;;;;;1999.90;999.90;;;;;;;;;;6125394;23;20049;-82
2024/02/29 04:56:07;;;;;;;1999.90;999.90;;;;;;;;;;6125989;23;20049;-82
2024/02/29 04:58:33;;;;;;;1999.90;999.90;;;;;;;;;;6125844;23;20022;-82
2024/02/29 05:01:01;;;;;;;1999.90;999.90;;;;;;;;;;6125715;23;20022;-81
2024/02/29 05:03:32;;;;;;;1999.90;999.90;;;;;;;;;;6125402;23;20079;-81
2024/02/29 05:05:59;;;;;;;1999.90;999.90;;;;;;;;;;6125456;23;20022;-83
2024/02/29 05:08:25;;;;;;;1999.90;999.90;;;;;;;;;;6125479;23;20048;-81
2024/02/29 05:10:52;;;;;;;1999.90;999.90;;;;;;;;;;6125456;23;20101;-81
2024/02/29 05:13:20;;;;;;;1999.90;999.90;;;;;;;;;;6125377;23;20033;-82
2024/02/29 05:15:47;;;;;;;1999.90;999.90;;;;;;;;;;6125333;23;20465;-81
2024/02/29 05:18:13;;;;;;;1999.90;999.90;;;;;;;;;;6125321;23;20025;-83
2024/02/29 05:20:40;;;;;;;1999.90;999.90;;;;;;;;;;6124680;23;20026;-82
2024/02/29 05:23:08;;;;;;;1999.90;999.90;;;;;;;;;;6125327;23;20029;-81
2024/02/29 05:25:35;;;;;;;1999.90;999.90;;;;;;;;;;6124827;23;20425;-82
2024/02/29 05:28:02;;;;;;;1999.90;999.90;;;;;;;;;;6125388;23;20022;-81
2024/02/29 05:30:30;;;;;;;1999.90;999.90;;;;;;;;;;6124822;23;20026;-82
2024/02/29 05:32:56;;;;;;;1999.90;999.90;;;;;;;;;;6125826;23;20026;-81
2024/02/29 05:35:25;;;;;;;1999.90;999.90;;;;;;;;;;6125141;23;20021;-81
2024/02/29 05:37:51;;;;;;;1999.90;999.90;;;;;;;;;;6125057;23;20030;-82
2024/02/29 05:40:18;;;;;;;1999.90;999.90;;;;;;;;;;6125113;23;20101;-81
2024/02/29 05:42:44;;;;;;;1999.90;999.90;;;;;;;;;;6125209;23;20109;-81
2024/02/29 05:45:12;;;;;;;1999.90;999.90;;;;;;;;;;6125196;23;20106;-81
2024/02/29 05:47:40;;;;;;;1999.90;999.90;;;;;;;;;;6124721;23;20069;-80
2024/02/29 05:50:08;;;;;;;1999.90;999.90;;;;;;;;;;6124632;23;20523;-81
2024/02/29 05:52:36;;;;;;;1999.90;999.90;;;;;;;;;;6124753;23;20026;-81
2024/02/29 05:55:02;;;;;;;1999.90;999.90;;;;;;;;;;6124855;23;20022;-81
2024/02/29 05:57:31;;;;;;;1999.90;999.90;;;;;;;;;;6124700;23;20022;-81
2024/02/29 06:00:00;;;;;;;1999.90;999.90;;;;;;;;;;6124311;23;20080;-82
2024/02/29 06:02:26;;;;;;;1999.90;999.90;;;;;;;;;;6123978;23;20030;-83
2024/02/29 06:04:54;;;;;;;1999.90;999.90;;;;;;;;;;6124446;23;20028;-82
2024/02/29 06:07:21;;;;;;;1999.90;999.90;;;;;;;;;;6124847;23;20018;-81
2024/02/29 06:09:47;;;;;;;1999.90;999.90;;;;;;;;;;6124844;23;20053;-81
2024/02/29 06:12:14;;;;;;;1999.90;999.90;;;;;;;;;;6124692;23;20528;-82
2024/02/29 06:14:41;;;;;;;1999.90;999.90;;;;;;;;;;6124273;23;20022;-81
2024/02/29 06:17:08;;;;;;;1999.90;999.90;;;;;;;;;;6123944;23;20133;-82
2024/02/29 06:19:38;;;;;;;1999.90;999.90;;;;;;;;;;6124291;23;20029;-82
2024/02/29 06:22:06;;;;;;;1999.90;999.90;;;;;;;;;;6124346;23;20419;-81
2024/02/29 06:24:33;;;;;;;1999.90;999.90;;;;;;;;;;6124350;23;20026;-83
2024/02/29 06:26:59;;;;;;;1999.90;999.90;;;;;;;;;;6124454;23;20028;-80
2024/02/29 06:29:26;;;;;;;1999.90;999.90;;;;;;;;;;6124372;23;20105;-79
2024/02/29 06:31:52;;;;;;;1999.90;999.90;;;;;;;;;;6124075;23;20081;-80
2024/02/29 06:34:19;;;;;;;1999.90;999.90;;;;;;;;;;6124204;23;20444;-80
2024/02/29 06:36:46;;;;;;;1999.90;999.90;;;;;;;;;;6124208;23;20017;-80
2024/02/29 06:39:14;;;;;;;1999.90;999.90;;;;;;;;;;6123506;23;20093;-80
2024/02/29 06:41:43;;;;;;;1999.90;999.90;;;;;;;;;;6124368;23;20018;-80
2024/02/29 06:44:10;;;;;;;1999.90;999.90;;;;;;;;;;6123601;23;20053;-79
2024/02/29 06:46:37;;;;;;;1999.90;999.90;;;;;;;;;;6124021;23;20102;-79
2024/02/29 06:49:04;;;;;;;1999.90;999.90;;;;;;;;;;6123550;23;20097;-80
2024/02/29 06:51:31;;;;;;;1999.90;999.90;;;;;;;;;;6123226;23;20022;-79
2024/02/29 06:53:58;;;;;;;1999.90;999.90;;;;;;;;;;6123913;23;20022;-79
2024/02/29 06:56:26;;;;;;;1999.90;999.90;;;;;;;;;;6123572;23;20029;-80
2024/02/29 06:58:53;;;;;;;1999.90;999.90;;;;;;;;;;6123913;23;20024;-81
2024/02/29 07:01:21;;;;;;;1999.90;999.90;;;;;;;;;;6123929;23;20093;-79
2024/02/29 07:03:47;;;;;;;1999.90;999.90;;;;;;;;;;6123532;23;20038;-80
2024/02/29 07:06:14;;;;;;;1999.90;999.90;;;;;;;;;;6123784;23;20033;-82
2024/02/29 07:08:41;;;;;;;1999.90;999.90;;;;;;;;;;6124130;23;20024;-80
2024/02/29 07:11:11;;;;;;;1999.90;999.90;;;;;;;;;;6124373;23;20029;-82
2024/02/29 07:13:39;;;;;;;1999.90;999.90;;;;;;;;;;6124330;23;20057;-79
2024/02/29 07:16:06;;;;;;;1999.90;999.90;;;;;;;;;;6123697;23;20097;-78
2024/02/29 07:18:32;;;;;;;1999.90;999.90;;;;;;;;;;6124010;23;20341;-79
2024/02/29 07:20:59;;;;;;;1999.90;999.90;;;;;;;;;;6123939;23;20021;-80
2024/02/29 07:23:26;;;;;;;1999.90;999.90;;;;;;;;;;6123668;23;20022;-81
2024/02/29 07:25:53;;;;;;;1999.90;999.90;;;;;;;;;;6123720;23;20105;-79
2024/02/29 07:28:19;;;;;;;1999.90;999.90;;;;;;;;;;6123648;23;20021;-80
2024/02/29 07:30:47;;;;;;;1999.90;999.90;;;;;;;;;;6123191;23;20349;-79
2024/02/29 07:33:14;;;;;;;1999.90;999.90;;;;;;;;;;6123571;23;20028;-82
2024/02/29 07:35:41;;;;;;;1999.90;999.90;;;;;;;;;;6123379;23;20026;-78
2024/02/29 07:38:07;;;;;;;1999.90;999.90;;;;;;;;;;6123498;23;20469;-79
2024/02/29 07:40:34;;;;;;;1999.90;999.90;;;;;;;;;;6123598;23;20406;-80
2024/02/29 07:43:01;;;;;;;1999.90;999.90;;;;;;;;;;6123213;23;20021;-79
2024/02/29 07:45:28;;;;;;;1999.90;999.90;;;;;;;;;;6123358;23;20101;-79
2024/02/29 07:47:56;;;;;;;1999.90;999.90;;;;;;;;;;6123730;23;20022;-79
2024/02/29 07:50:22;;;;;;;1999.90;999.90;;;;;;;;;;6123270;23;20033;-80
2024/02/29 07:52:49;;;;;;;1999.90;999.90;;;;;;;;;;6123736;23;20330;-80
2024/02/29 07:55:16;;;;;;;1999.90;999.90;;;;;;;;;;6123459;23;20028;-79
2024/02/29 07:57:43;;;;;;;1999.90;999.90;;;;;;;;;;6123535;23;20018;-81
2024/02/29 08:00:11;;;;;;;1999.90;999.90;;;;;;;;;;6123484;23;20072;-79
2024/02/29 08:02:38;;;;;;;1999.90;999.90;;;;;;;;;;6123725;23;20026;-79
2024/02/29 08:05:06;;;;;;;1999.90;999.90;;;;;;;;;;6123130;23;20021;-80
2024/02/29 08:07:33;;;;;;;1999.90;999.90;;;;;;;;;;6123405;23;20021;-79
2024/02/29 08:09:59;;;;;;;1999.90;999.90;;;;;;;;;;6123126;23;20028;-81
2024/02/29 08:12:25;;;;;;;1999.90;999.90;;;;;;;;;;6123414;23;20042;-80
2024/02/29 08:14:52;;;;;;;1999.90;999.90;;;;;;;;;;6123126;23;20028;-79
2024/02/29 08:17:19;;;;;;;1999.90;999.90;;;;;;;;;;6123592;23;20026;-80
2024/02/29 08:19:45;;;;;;;1999.90;999.90;;;;;;;;;;6123076;23;20022;-80
2024/02/29 08:22:14;;;;;;;1999.90;999.90;;;;;;;;;;6123494;23;20022;-79
2024/02/29 08:24:41;;;;;;;1999.90;999.90;;;;;;;;;;6122983;23;20033;-79
2024/02/29 08:27:07;;;;;;;1999.90;999.90;;;;;;;;;;6123003;23;20030;-79
2024/02/29 08:29:34;;;;;;;1999.90;999.90;;;;;;;;;;6123184;23;20024;-81
2024/02/29 08:32:00;;;;;;;1999.90;999.90;;;;;;;;;;6122740;23;20372;-80
2024/02/29 08:34:27;;;;;;;1999.90;999.90;;;;;;;;;;6123148;23;20026;-80
2024/02/29 08:36:54;;;;;;;1999.90;999.90;;;;;;;;;;6122935;23;20097;-80
2024/02/29 08:39:21;;;;;;;1999.90;999.90;;;;;;;;;;6123102;23;20033;-80
2024/02/29 08:41:48;;;;;;;1999.90;999.90;;;;;;;;;;6123046;23;20106;-81
2024/02/29 08:44:15;;;;;;;1999.90;999.90;;;;;;;;;;6122951;23;20032;-80
2024/02/29 08:46:43;;;;;;;1999.90;999.90;;;;;;;;;;6123216;23;20109;-82
2024/02/29 08:49:10;;;;;;;1999.90;999.90;;;;;;;;;;6122753;23;20028;-79
2024/02/29 08:51:37;;;;;;;1999.90;999.90;;;;;;;;;;6123121;23;20082;-81
2024/02/29 08:54:04;;;;;;;1999.90;999.90;;;;;;;;;;6123093;23;20105;-80
2024/02/29 08:56:32;;;;;;;1999.90;999.90;;;;;;;;;;6123026;23;20018;-79
2024/02/29 08:58:59;;;;;;;1999.90;999.90;;;;;;;;;;6123358;23;20336;-79
2024/02/29 09:01:26;;;;;;;1999.90;999.90;;;;;;;;;;6122689;23;20022;-79
2024/02/29 09:03:53;;;;;;;1999.90;999.90;;;;;;;;;;6122970;23;20434;-80
2024/02/29 09:06:19;;;;;;;1999.90;999.90;;;;;;;;;;6122482;23;20026;-79
2024/02/29 09:08:46;;;;;;;1999.90;999.90;;;;;;;;;;6123248;23;20385;-80
2024/02/29 09:11:12;;;;;;;1999.90;999.90;;;;;;;;;;6122914;23;20390;-79
2024/02/29 09:13:40;;;;;;;1999.90;999.90;;;;;;;;;;6122569;23;20030;-82
2024/02/29 09:16:07;;;;;;;1999.90;999.90;;;;;;;;;;6122967;23;20022;-80
2024/02/29 09:18:34;;;;;;;1999.90;999.90;;;;;;;;;;6123024;23;20077;-82
2024/02/29 09:21:01;;;;;;;1999.90;999.90;;;;;;;;;;6122873;23;20018;-80
2024/02/29 09:23:28;;;;;;;1999.90;999.90;;;;;;;;;;6122922;23;20105;-80
2024/02/29 09:25:55;;;;;;;1999.90;999.90;;;;;;;;;;6122625;23;20037;-81
2024/02/29 09:28:21;;;;;;;1999.90;999.90;;;;;;;;;;6122953;23;20018;-80
2024/02/29 09:30:49;;;;;;;1999.90;999.90;;;;;;;;;;6123115;23;20037;-80
2024/02/29 09:33:16;;;;;;;1999.90;999.90;;;;;;;;;;6122535;23;20028;-80
2024/02/29 09:35:42;;;;;;;1999.90;999.90;;;;;;;;;;6122683;23;20025;-81
2024/02/29 09:38:09;;;;;;;1999.90;999.90;;;;;;;;;;6123673;23;20026;-81
2024/02/29 09:40:35;;;;;;;1999.90;999.90;;;;;;;;;;6124560;23;20018;-80
2024/02/29 09:43:02;;;;;;;1999.90;999.90;;;;;;;;;;6124880;23;20018;-80
2024/02/29 09:45:34;;;;;;;1999.90;999.90;;;;;;;;;;6124589;23;20053;-81
2024/02/29 09:48:05;;;;;;;1999.90;999.90;;;;;;;;;;6124505;23;20022;-80
2024/02/29 09:50:31;;;;;;;1999.90;999.90;;;;;;;;;;6124585;23;20092;-81
2024/02/29 09:52:59;;;;;;;1999.90;999.90;;;;;;;;;;6124059;23;20487;-80
2024/02/29 09:55:27;;;;;;;1999.90;999.90;;;;;;;;;;6124798;23;20021;-80
2024/02/29 09:57:54;;;;;;;1999.90;999.90;;;;;;;;;;6124438;23;20046;-80
2024/02/29 10:00:21;;;;;;;1999.90;999.90;;;;;;;;;;6124473;23;20021;-82
2024/02/29 10:02:48;;;;;;;1999.90;999.90;;;;;;;;;;6124794;23;20038;-80
2024/02/29 10:05:16;;;;;;;1999.90;999.90;;;;;;;;;;6124607;23;20028;-81
2024/02/29 10:07:45;;;;;;;1999.90;999.90;;;;;;;;;;6123719;23;20341;-81
2024/02/29 10:10:13;;;;;;;1999.90;999.90;;;;;;;;;;6124186;23;20022;-80
2024/02/29 10:12:39;;;;;;;1999.90;999.90;;;;;;;;;;6124015;23;20022;-80
2024/02/29 10:15:10;;;;;;;1999.90;999.90;;;;;;;;;;6124154;23;20026;-80
2024/02/29 10:17:37;;;;;;;1999.90;999.90;;;;;;;;;;6124111;23;20025;-81
2024/02/29 10:20:07;;;;;;;1999.90;999.90;;;;;;;;;;6124003;23;20026;-80
2024/02/29 10:22:35;;;;;;;1999.90;999.90;;;;;;;;;;6124006;23;20018;-81
2024/02/29 10:25:02;;;;;;;1999.90;999.90;;;;;;;;;;6123871;23;20028;-81
2024/02/29 10:27:28;;;;;;;1999.90;999.90;;;;;;;;;;6124034;23;20022;-80
2024/02/29 10:29:58;;;;;;;1999.90;999.90;;;;;;;;;;6123461;23;20469;-80
2024/02/29 10:32:24;;;;;;;1999.90;999.90;;;;;;;;;;6123890;23;20030;-80
2024/02/29 10:34:51;;;;;;;1999.90;999.90;;;;;;;;;;6123847;23;20100;-80
2024/02/29 10:37:17;;;;;;;1999.90;999.90;;;;;;;;;;6123565;23;20018;-80
2024/02/29 10:39:45;;;;;;;1999.90;999.90;;;;;;;;;;6123827;23;20033;-81
2024/02/29 10:42:12;;;;;;;1999.90;999.90;;;;;;;;;;6123691;23;20022;-80
2024/02/29 10:44:42;;;;;;;1999.90;999.90;;;;;;;;;;6122964;23;20045;-80
2024/02/29 10:47:10;;;;;;;1999.90;999.90;;;;;;;;;;6123953;23;20022;-80
2024/02/29 10:49:42;;;;;;;1999.90;999.90;;;;;;;;;;6123582;23;20380;-79
2024/02/29 10:52:10;;;;;;;1999.90;999.90;;;;;;;;;;6123764;23;20437;-80
2024/02/29 10:54:42;;;;;;;1999.90;999.90;;;;;;;;;;6123873;23;20018;-81
2024/02/29 10:57:15;;;;;;;1999.90;999.90;;;;;;;;;;6123716;23;20026;-81
2024/02/29 10:59:44;;;;;;;1999.90;999.90;;;;;;;;;;6124124;23;20021;-81
2024/02/29 11:02:11;;;;;;;1999.90;999.90;;;;;;;;;;6123903;23;20104;-81
2024/02/29 11:04:37;;;;;;;1999.90;999.90;;;;;;;;;;6123501;23;20026;-81
2024/02/29 11:07:05;;;;;;;1999.90;999.90;;;;;;;;;;6123998;23;20125;-81
2024/02/29 11:09:32;;;;;;;1999.90;999.90;;;;;;;;;;6124099;23;20026;-81
2024/02/29 11:12:11;;;;;;;1999.90;999.90;;;;;;;;;;6123579;23;20080;-81
2024/02/29 11:14:38;;;;;;;1999.90;999.90;;;;;;;;;;6123713;23;20503;-81
2024/02/29 11:17:05;;;;;;;1999.90;999.90;;;;;;;;;;6123699;23;20032;-81
2024/02/29 11:19:32;;;;;;;1999.90;999.90;;;;;;;;;;6123923;23;20026;-81
2024/02/29 11:22:08;;;;;;;1999.90;999.90;;;;;;;;;;6123828;23;20018;-81
2024/02/29 11:24:35;;;;;;;1999.90;999.90;;;;;;;;;;6123844;23;20026;-81
2024/02/29 11:27:09;;;;;;;1999.90;999.90;;;;;;;;;;6122644;23;20453;-82
2024/02/29 11:29:37;;;;;;;1999.90;999.90;;;;;;;;;;6123251;23;20389;-80
2024/02/29 11:32:04;;;;;;;1999.90;999.90;;;;;;;;;;6121551;23;20018;-81
2024/02/29 11:34:31;;;;;;;1999.90;999.90;;;;;;;;;;6123145;23;20021;-82
2024/02/29 11:36:58;;;;;;;1999.90;999.90;;;;;;;;;;6122972;23;20022;-82
2024/02/29 11:39:25;;;;;;;1999.90;999.90;;;;;;;;;;6123088;23;20022;-81
2024/02/29 11:42:02;;;;;;;1999.90;999.90;;;;;;;;;;6122993;23;20028;-81
2024/02/29 11:44:29;;;;;;;1999.90;999.90;;;;;;;;;;6123025;23;20057;-82
2024/02/29 11:46:57;;;;;;;1999.90;999.90;;;;;;;;;;6123095;23;20022;-81
2024/02/29 11:49:25;;;;;;;1999.90;999.90;;;;;;;;;;6122891;23;20029;-81
2024/02/29 11:51:53;;;;;;;1999.90;999.90;;;;;;;;;;6122810;23;20101;-81
2024/02/29 11:54:20;;;;;;;1999.90;999.90;;;;;;;;;;6123304;23;20048;-81
2024/02/29 11:56:47;;;;;;;1999.90;999.90;;;;;;;;;;6122568;23;20471;-80
2024/02/29 11:59:15;;;;;;;1999.90;999.90;;;;;;;;;;6122845;23;20028;-81
2024/02/29 12:01:42;;;;;;;1999.90;999.90;;;;;;;;;;6122623;23;20022;-81
2024/02/29 12:04:10;;;;;;;1999.90;999.90;;;;;;;;;;6122546;23;20026;-82
2024/02/29 12:06:39;;;;;;;1999.90;999.90;;;;;;;;;;6122839;23;20104;-81
2024/02/29 12:09:06;;;;;;;1999.90;999.90;;;;;;;;;;6123295;23;20096;-81
2024/02/29 12:11:33;;;;;;;1999.90;999.90;;;;;;;;;;6122793;23;20060;-81
2024/02/29 12:14:00;;;;;;;1999.90;999.90;;;;;;;;;;6122897;23;20026;-81
2024/02/29 12:16:29;;;;;;;1999.90;999.90;;;;;;;;;;6122701;23;20022;-80
2024/02/29 12:18:55;;;;;;;1999.90;999.90;;;;;;;;;;6122496;23;20029;-81
2024/02/29 12:21:25;;;;;;;1999.90;999.90;;;;;;;;;;6122580;23;20018;-81
2024/02/29 12:23:52;;;;;;;1999.90;999.90;;;;;;;;;;6122979;23;20018;-80
2024/02/29 12:26:21;;;;;;;1999.90;999.90;;;;;;;;;;6122560;23;20029;-80
2024/02/29 12:28:48;;;;;;;1999.90;999.90;;;;;;;;;;6122775;23;20046;-80
2024/02/29 12:31:15;;;;;;;1999.90;999.90;;;;;;;;;;6122633;23;20025;-81
2024/02/29 12:33:43;;;;;;;1999.90;999.90;;;;;;;;;;6122251;23;20026;-82
2024/02/29 12:36:12;;;;;;;1999.90;999.90;;;;;;;;;;6122845;23;20026;-81
2024/02/29 12:38:40;;;;;;;1999.90;999.90;;;;;;;;;;6122660;23;20028;-81
2024/02/29 12:41:08;;;;;;;1999.90;999.90;;;;;;;;;;6122645;23;20022;-82
2024/02/29 12:43:36;;;;;;;1999.90;999.90;;;;;;;;;;6123148;23;20049;-83
2024/02/29 12:46:03;;;;;;;1999.90;999.90;;;;;;;;;;6122446;23;20508;-82
2024/02/29 12:48:30;;;;;;;1999.90;999.90;;;;;;;;;;6123015;23;20022;-81
2024/02/29 12:50:57;;;;;;;1999.90;999.90;;;;;;;;;;6122940;23;20026;-81
2024/02/29 12:53:23;;;;;;;1999.90;999.90;;;;;;;;;;6122674;23;20453;-82
2024/02/29 12:55:53;;;;;;;1999.90;999.90;;;;;;;;;;6122607;23;20053;-83
2024/02/29 12:58:19;;;;;;;1999.90;999.90;;;;;;;;;;6122471;23;20053;-82
2024/02/29 13:00:46;;;;;;;1999.90;999.90;;;;;;;;;;6122611;23;20026;-81
2024/02/29 13:03:12;;;;;;;1999.90;999.90;;;;;;;;;;6122657;23;20344;-80
2024/02/29 13:05:40;;;;;;;1999.90;999.90;;;;;;;;;;6122246;23;20032;-84
2024/02/29 13:08:08;;;;;;;1999.90;999.90;;;;;;;;;;6122677;23;20023;-80
2024/02/29 13:10:35;;;;;;;1999.90;999.90;;;;;;;;;;6122552;23;20025;-81
2024/02/29 13:13:04;;;;;;;1999.90;999.90;;;;;;;;;;6123065;23;20022;-81
2024/02/29 13:15:31;;;;;;;1999.90;999.90;;;;;;;;;;6124589;23;20026;-81
2024/02/29 13:17:57;;;;;;;1999.90;999.90;;;;;;;;;;6124409;23;20029;-82
2024/02/29 13:20:24;;;;;;;1999.90;999.90;;;;;;;;;;6124562;23;20028;-81
2024/02/29 13:22:50;;;;;;;1999.90;999.90;;;;;;;;;;6124009;23;20022;-83
2024/02/29 13:25:17;;;;;;;1999.90;999.90;;;;;;;;;;6124556;23;20096;-81
2024/02/29 13:27:43;;;;;;;1999.90;999.90;;;;;;;;;;6123922;23;20457;-82
2024/02/29 13:30:12;;;;;;;1999.90;999.90;;;;;;;;;;6124592;23;20022;-81
2024/02/29 13:32:38;;;;;;;1999.90;999.90;;;;;;;;;;6124280;23;20017;-81
2024/02/29 13:35:05;;;;;;;1999.90;999.90;;;;;;;;;;6124288;23;20022;-81
2024/02/29 13:37:32;;;;;;;1999.90;999.90;;;;;;;;;;6124478;23;20036;-82
2024/02/29 13:39:58;;;;;;;1999.90;999.90;;;;;;;;;;6124282;23;20017;-81
2024/02/29 13:42:25;;;;;;;1999.90;999.90;;;;;;;;;;6123802;23;20032;-81